메인 페이지
METAR-TAF:

METAR-TAF

공항 :

두바이 국제공항

두바이, 아랍에미리트

위도: 25-15-10N, 경도: 055-21-52E, 고도: 8m

현재 날씨관측

예보는 11분 전, 05:00시(UTC)에 발표되었습니다.
6kt북동풍과 남동풍을 오가는
온도 39°C
습도 28%
기압 996 hPa
시정: 7000m

METAR: OMDB 220500Z 09006KT 050V140 7000 NSC 39/17 Q0996 NOSIG

시각: 09:11 (05:11 UTC)

예보

예보는 6 시간 11분 전, 23:00시(UTC)에 발표되었습니다.
예보 대상 시간: 22일 00시부터 23일 06시까지 (UTC)
5kt
시정: 8000m
확률 30%
22일 04시부터 22일 07시까지 (UTC)
남남서10kt
전환 중
22일 07시부터 22일 09시까지 (UTC)
북서13kt
전환 중
22일 16시부터 22일 18시까지 (UTC)
5kt

TAF: OMDB 212300Z 2200/2306 08005KT 8000 NSC PROB30 2204/2207 21010KT BECMG 2207/2209 32013KT BECMG 2216/2218 08005KT

4,000개 이상의 공항 관측 자료 및 예보 (METAR 및 TAF 보고).

지도상에서 검색 가능한 기상관측소가 노란 점과 빨간 점으로 표시되어 있습니다.

기상관측소 명을 보려면 표시 위로 마우스를 이동하세요.

날씨 관측과 예보를 보려면 클릭하세요.

지도 변경 : 확대하려면 엑스 표시가 있는 녹색 버튼, 축소하려면 빼기 표시가 있는 녹색 버튼, 다음 페이지의 지도를 보려면 녹색 화살표를 클릭하세요.


METAR-TAF: